Terminal Aerodrome Forecast
Issued by NWS

Home | Current Version | Previous Version | Text Only | Print | Product List | Glossary On
Versions: 1 2 3 4 5 6 7 8 9 10 11 12 13 14 15 16 17 18 19
000
FTUS44 KOHX 310858 AAB
TAFCKV
TAF AMD
KCKV 310858Z 3109/0106 00000KT 2SM BR SKC
      TEMPO 3109/3112 1/4SM FG
     FM311400 15005KT P6SM SCT100=

USA.gov is the U.S. government's official web portal to all federal, state and local government web resources and services.